sensor_id;sensor_type;location;lat;lon;timestamp;P1;durP1;ratioP1;P2;durP2;ratioP2
26113;SDS011;13966;48.828;9.064;2022-11-20T00:01:32;26.25;;;12.93;;
26113;SDS011;13966;48.828;9.064;2022-11-20T00:03:52;17.90;;;11.98;;
26113;SDS011;13966;48.828;9.064;2022-11-20T00:06:19;18.65;;;12.88;;
26113;SDS011;13966;48.828;9.064;2022-11-20T00:08:45;21.98;;;13.00;;
26113;SDS011;13966;48.828;9.064;2022-11-20T00:11:13;17.08;;;12.35;;
26113;SDS011;13966;48.828;9.064;2022-11-20T00:13:39;17.77;;;12.68;;
26113;SDS011;13966;48.828;9.064;2022-11-20T00:16:07;18.85;;;12.68;;
26113;SDS011;13966;48.828;9.064;2022-11-20T00:18:33;20.67;;;12.85;;
26113;SDS011;13966;48.828;9.064;2022-11-20T00:21:00;22.60;;;12.45;;
26113;SDS011;13966;48.828;9.064;2022-11-20T00:23:26;18.55;;;12.35;;
26113;SDS011;13966;48.828;9.064;2022-11-20T00:25:52;18.10;;;11.95;;
26113;SDS011;13966;48.828;9.064;2022-11-20T00:28:18;17.63;;;11.73;;
26113;SDS011;13966;48.828;9.064;2022-11-20T00:30:44;15.30;;;10.75;;
26113;SDS011;13966;48.828;9.064;2022-11-20T00:33:10;14.35;;;10.55;;
26113;SDS011;13966;48.828;9.064;2022-11-20T00:35:36;14.68;;;10.18;;
26113;SDS011;13966;48.828;9.064;2022-11-20T00:38:02;14.43;;;10.38;;
26113;SDS011;13966;48.828;9.064;2022-11-20T00:40:28;12.23;;;9.90;;
26113;SDS011;13966;48.828;9.064;2022-11-20T00:42:54;13.55;;;10.13;;
26113;SDS011;13966;48.828;9.064;2022-11-20T00:45:20;14.43;;;10.18;;
26113;SDS011;13966;48.828;9.064;2022-11-20T00:47:46;14.57;;;9.98;;
26113;SDS011;13966;48.828;9.064;2022-11-20T00:50:12;12.45;;;9.20;;
26113;SDS011;13966;48.828;9.064;2022-11-20T00:52:38;13.55;;;10.25;;
26113;SDS011;13966;48.828;9.064;2022-11-20T00:55:04;15.25;;;10.43;;
26113;SDS011;13966;48.828;9.064;2022-11-20T00:57:31;14.00;;;10.05;;
26113;SDS011;13966;48.828;9.064;2022-11-20T00:59:57;17.52;;;12.38;;
26113;SDS011;13966;48.828;9.064;2022-11-20T01:02:23;17.52;;;12.40;;
26113;SDS011;13966;48.828;9.064;2022-11-20T01:04:49;17.65;;;11.77;;
26113;SDS011;13966;48.828;9.064;2022-11-20T01:07:15;16.38;;;11.43;;
26113;SDS011;13966;48.828;9.064;2022-11-20T01:09:41;15.45;;;10.77;;
26113;SDS011;13966;48.828;9.064;2022-11-20T01:12:07;11.75;;;8.85;;
26113;SDS011;13966;48.828;9.064;2022-11-20T01:14:33;10.88;;;7.20;;
26113;SDS011;13966;48.828;9.064;2022-11-20T01:16:59;7.13;;;5.32;;
26113;SDS011;13966;48.828;9.064;2022-11-20T01:19:25;8.40;;;5.35;;
26113;SDS011;13966;48.828;9.064;2022-11-20T01:21:52;6.70;;;4.80;;
26113;SDS011;13966;48.828;9.064;2022-11-20T01:24:19;5.90;;;4.03;;
26113;SDS011;13966;48.828;9.064;2022-11-20T01:26:46;5.35;;;4.22;;
26113;SDS011;13966;48.828;9.064;2022-11-20T01:29:14;6.57;;;4.22;;
26113;SDS011;13966;48.828;9.064;2022-11-20T01:31:40;7.53;;;4.40;;
26113;SDS011;13966;48.828;9.064;2022-11-20T01:34:08;5.47;;;4.00;;
26113;SDS011;13966;48.828;9.064;2022-11-20T01:36:35;8.70;;;3.65;;
26113;SDS011;13966;48.828;9.064;2022-11-20T01:39:03;5.10;;;3.75;;
26113;SDS011;13966;48.828;9.064;2022-11-20T01:41:29;6.18;;;4.07;;
26113;SDS011;13966;48.828;9.064;2022-11-20T01:44:16;4.57;;;3.72;;
26113;SDS011;13966;48.828;9.064;2022-11-20T01:46:50;4.65;;;3.72;;
26113;SDS011;13966;48.828;9.064;2022-11-20T01:49:20;5.07;;;3.90;;
26113;SDS011;13966;48.828;9.064;2022-11-20T01:51:55;5.82;;;3.70;;
26113;SDS011;13966;48.828;9.064;2022-11-20T01:54:28;8.68;;;4.25;;
26113;SDS011;13966;48.828;9.064;2022-11-20T01:56:55;4.95;;;3.42;;
26113;SDS011;13966;48.828;9.064;2022-11-20T01:59:22;5.38;;;3.78;;
26113;SDS011;13966;48.828;9.064;2022-11-20T02:01:49;4.43;;;3.30;;
26113;SDS011;13966;48.828;9.064;2022-11-20T02:04:16;4.22;;;3.22;;
26113;SDS011;13966;48.828;9.064;2022-11-20T02:06:43;4.10;;;3.03;;
26113;SDS011;13966;48.828;9.064;2022-11-20T02:09:10;5.38;;;3.00;;
26113;SDS011;13966;48.828;9.064;2022-11-20T02:11:36;4.32;;;2.88;;
26113;SDS011;13966;48.828;9.064;2022-11-20T02:14:02;3.75;;;2.90;;
26113;SDS011;13966;48.828;9.064;2022-11-20T02:16:30;4.60;;;2.97;;
26113;SDS011;13966;48.828;9.064;2022-11-20T02:18:57;5.03;;;2.92;;
26113;SDS011;13966;48.828;9.064;2022-11-20T02:21:45;5.32;;;2.90;;
26113;SDS011;13966;48.828;9.064;2022-11-20T02:24:14;4.28;;;2.72;;
26113;SDS011;13966;48.828;9.064;2022-11-20T02:26:51;3.47;;;2.22;;
26113;SDS011;13966;48.828;9.064;2022-11-20T02:29:19;3.58;;;2.20;;
26113;SDS011;13966;48.828;9.064;2022-11-20T02:31:48;3.53;;;2.38;;
26113;SDS011;13966;48.828;9.064;2022-11-20T02:34:14;4.43;;;2.38;;
26113;SDS011;13966;48.828;9.064;2022-11-20T02:36:40;4.57;;;2.50;;
26113;SDS011;13966;48.828;9.064;2022-11-20T02:39:07;3.78;;;2.40;;
26113;SDS011;13966;48.828;9.064;2022-11-20T02:41:34;2.88;;;2.50;;
26113;SDS011;13966;48.828;9.064;2022-11-20T02:44:00;5.03;;;3.03;;
26113;SDS011;13966;48.828;9.064;2022-11-20T02:46:27;5.15;;;2.63;;
26113;SDS011;13966;48.828;9.064;2022-11-20T02:48:53;5.25;;;3.08;;
26113;SDS011;13966;48.828;9.064;2022-11-20T02:51:19;3.53;;;2.78;;
26113;SDS011;13966;48.828;9.064;2022-11-20T02:53:45;4.68;;;3.03;;
26113;SDS011;13966;48.828;9.064;2022-11-20T02:56:11;5.68;;;2.70;;
26113;SDS011;13966;48.828;9.064;2022-11-20T02:58:37;4.57;;;2.60;;
26113;SDS011;13966;48.828;9.064;2022-11-20T03:01:03;4.05;;;2.75;;
26113;SDS011;13966;48.828;9.064;2022-11-20T03:03:29;3.78;;;2.97;;
26113;SDS011;13966;48.828;9.064;2022-11-20T03:05:55;3.90;;;2.67;;
26113;SDS011;13966;48.828;9.064;2022-11-20T03:08:21;4.53;;;2.70;;
26113;SDS011;13966;48.828;9.064;2022-11-20T03:10:47;4.25;;;3.10;;
26113;SDS011;13966;48.828;9.064;2022-11-20T03:13:13;7.93;;;2.80;;
26113;SDS011;13966;48.828;9.064;2022-11-20T03:15:39;3.53;;;3.10;;
26113;SDS011;13966;48.828;9.064;2022-11-20T03:18:05;4.70;;;2.83;;
26113;SDS011;13966;48.828;9.064;2022-11-20T03:20:32;3.97;;;3.10;;
26113;SDS011;13966;48.828;9.064;2022-11-20T03:22:58;3.85;;;3.13;;
26113;SDS011;13966;48.828;9.064;2022-11-20T03:25:24;4.55;;;3.28;;
26113;SDS011;13966;48.828;9.064;2022-11-20T03:27:50;4.68;;;3.05;;
26113;SDS011;13966;48.828;9.064;2022-11-20T03:30:16;4.07;;;2.72;;
26113;SDS011;13966;48.828;9.064;2022-11-20T03:32:42;6.40;;;3.05;;
26113;SDS011;13966;48.828;9.064;2022-11-20T03:35:08;5.28;;;3.33;;
26113;SDS011;13966;48.828;9.064;2022-11-20T03:37:34;3.70;;;3.00;;
26113;SDS011;13966;48.828;9.064;2022-11-20T03:40:00;4.85;;;3.40;;
26113;SDS011;13966;48.828;9.064;2022-11-20T03:42:26;4.10;;;3.40;;
26113;SDS011;13966;48.828;9.064;2022-11-20T03:45:11;5.75;;;3.45;;
26113;SDS011;13966;48.828;9.064;2022-11-20T03:47:37;6.90;;;3.50;;
26113;SDS011;13966;48.828;9.064;2022-11-20T03:50:03;5.60;;;3.38;;
26113;SDS011;13966;48.828;9.064;2022-11-20T03:52:29;4.22;;;3.10;;
26113;SDS011;13966;48.828;9.064;2022-11-20T03:54:55;6.68;;;3.45;;
26113;SDS011;13966;48.828;9.064;2022-11-20T03:57:21;6.10;;;3.42;;
26113;SDS011;13966;48.828;9.064;2022-11-20T03:59:47;6.50;;;3.35;;
26113;SDS011;13966;48.828;9.064;2022-11-20T04:02:13;4.68;;;3.30;;
26113;SDS011;13966;48.828;9.064;2022-11-20T04:04:39;5.28;;;3.38;;
26113;SDS011;13966;48.828;9.064;2022-11-20T04:07:05;8.55;;;3.90;;
26113;SDS011;13966;48.828;9.064;2022-11-20T04:09:31;10.02;;;3.65;;
26113;SDS011;13966;48.828;9.064;2022-11-20T04:11:57;4.93;;;3.10;;
26113;SDS011;13966;48.828;9.064;2022-11-20T04:14:23;4.20;;;3.63;;
26113;SDS011;13966;48.828;9.064;2022-11-20T04:16:49;5.18;;;3.88;;
26113;SDS011;13966;48.828;9.064;2022-11-20T04:19:16;4.25;;;3.80;;
26113;SDS011;13966;48.828;9.064;2022-11-20T04:21:43;4.25;;;3.40;;
26113;SDS011;13966;48.828;9.064;2022-11-20T04:24:09;4.63;;;3.20;;
26113;SDS011;13966;48.828;9.064;2022-11-20T04:26:36;5.30;;;3.80;;
26113;SDS011;13966;48.828;9.064;2022-11-20T04:29:02;6.93;;;3.95;;
26113;SDS011;13966;48.828;9.064;2022-11-20T04:31:29;4.68;;;3.75;;
26113;SDS011;13966;48.828;9.064;2022-11-20T04:33:58;6.43;;;4.15;;
26113;SDS011;13966;48.828;9.064;2022-11-20T04:36:25;5.32;;;3.60;;
26113;SDS011;13966;48.828;9.064;2022-11-20T04:38:51;4.93;;;3.58;;
26113;SDS011;13966;48.828;9.064;2022-11-20T04:41:19;6.20;;;3.63;;
26113;SDS011;13966;48.828;9.064;2022-11-20T04:43:48;4.53;;;3.50;;
26113;SDS011;13966;48.828;9.064;2022-11-20T04:46:15;4.85;;;3.35;;
26113;SDS011;13966;48.828;9.064;2022-11-20T04:48:42;5.28;;;3.28;;
26113;SDS011;13966;48.828;9.064;2022-11-20T04:51:08;4.65;;;3.40;;
26113;SDS011;13966;48.828;9.064;2022-11-20T04:53:34;5.53;;;3.38;;
26113;SDS011;13966;48.828;9.064;2022-11-20T04:56:04;6.15;;;3.25;;
26113;SDS011;13966;48.828;9.064;2022-11-20T04:58:30;4.82;;;2.97;;
26113;SDS011;13966;48.828;9.064;2022-11-20T05:01:03;7.75;;;3.47;;
26113;SDS011;13966;48.828;9.064;2022-11-20T05:03:29;4.55;;;3.72;;
26113;SDS011;13966;48.828;9.064;2022-11-20T05:05:55;6.60;;;3.65;;
26113;SDS011;13966;48.828;9.064;2022-11-20T05:08:21;5.30;;;3.25;;
26113;SDS011;13966;48.828;9.064;2022-11-20T05:10:47;5.57;;;3.78;;
26113;SDS011;13966;48.828;9.064;2022-11-20T05:13:13;4.43;;;3.65;;
26113;SDS011;13966;48.828;9.064;2022-11-20T05:15:39;4.93;;;3.10;;
26113;SDS011;13966;48.828;9.064;2022-11-20T05:18:05;5.93;;;3.38;;
26113;SDS011;13966;48.828;9.064;2022-11-20T05:20:31;4.25;;;3.20;;
26113;SDS011;13966;48.828;9.064;2022-11-20T05:22:57;3.50;;;2.92;;
26113;SDS011;13966;48.828;9.064;2022-11-20T05:25:23;4.03;;;2.95;;
26113;SDS011;13966;48.828;9.064;2022-11-20T05:27:49;3.10;;;2.80;;
26113;SDS011;13966;48.828;9.064;2022-11-20T05:30:15;4.88;;;3.42;;
26113;SDS011;13966;48.828;9.064;2022-11-20T05:32:41;4.57;;;3.00;;
26113;SDS011;13966;48.828;9.064;2022-11-20T05:35:07;7.03;;;3.42;;
26113;SDS011;13966;48.828;9.064;2022-11-20T05:37:33;5.00;;;3.22;;
26113;SDS011;13966;48.828;9.064;2022-11-20T05:39:59;3.88;;;3.13;;
26113;SDS011;13966;48.828;9.064;2022-11-20T05:42:25;3.78;;;3.03;;
26113;SDS011;13966;48.828;9.064;2022-11-20T05:45:01;4.95;;;3.40;;
26113;SDS011;13966;48.828;9.064;2022-11-20T05:47:27;5.78;;;3.53;;
26113;SDS011;13966;48.828;9.064;2022-11-20T05:49:54;6.72;;;3.45;;
26113;SDS011;13966;48.828;9.064;2022-11-20T05:52:20;6.30;;;3.80;;
26113;SDS011;13966;48.828;9.064;2022-11-20T05:54:46;5.18;;;3.95;;
26113;SDS011;13966;48.828;9.064;2022-11-20T05:57:12;6.43;;;3.33;;
26113;SDS011;13966;48.828;9.064;2022-11-20T05:59:38;6.20;;;4.10;;
26113;SDS011;13966;48.828;9.064;2022-11-20T06:02:04;8.75;;;3.88;;
26113;SDS011;13966;48.828;9.064;2022-11-20T06:04:30;4.90;;;3.50;;
26113;SDS011;13966;48.828;9.064;2022-11-20T06:06:56;5.72;;;3.33;;
26113;SDS011;13966;48.828;9.064;2022-11-20T06:09:22;3.67;;;3.20;;
26113;SDS011;13966;48.828;9.064;2022-11-20T06:11:48;8.15;;;3.50;;
26113;SDS011;13966;48.828;9.064;2022-11-20T06:14:14;6.05;;;3.40;;
26113;SDS011;13966;48.828;9.064;2022-11-20T06:16:40;5.03;;;3.60;;
26113;SDS011;13966;48.828;9.064;2022-11-20T06:19:06;6.03;;;3.50;;
26113;SDS011;13966;48.828;9.064;2022-11-20T06:21:32;6.63;;;3.80;;
26113;SDS011;13966;48.828;9.064;2022-11-20T06:23:58;6.97;;;3.50;;
26113;SDS011;13966;48.828;9.064;2022-11-20T06:26:25;6.00;;;3.78;;
26113;SDS011;13966;48.828;9.064;2022-11-20T06:28:52;5.22;;;3.70;;
26113;SDS011;13966;48.828;9.064;2022-11-20T06:31:21;5.57;;;3.33;;
26113;SDS011;13966;48.828;9.064;2022-11-20T06:33:47;3.63;;;2.95;;
26113;SDS011;13966;48.828;9.064;2022-11-20T06:36:14;3.20;;;2.85;;
26113;SDS011;13966;48.828;9.064;2022-11-20T06:38:41;3.17;;;2.60;;
26113;SDS011;13966;48.828;9.064;2022-11-20T06:41:10;3.17;;;2.78;;
26113;SDS011;13966;48.828;9.064;2022-11-20T06:43:36;3.20;;;2.80;;
26113;SDS011;13966;48.828;9.064;2022-11-20T06:46:02;3.10;;;2.80;;
26113;SDS011;13966;48.828;9.064;2022-11-20T06:48:28;3.75;;;2.63;;
26113;SDS011;13966;48.828;9.064;2022-11-20T06:50:55;5.65;;;3.00;;
26113;SDS011;13966;48.828;9.064;2022-11-20T06:53:21;3.65;;;2.75;;
26113;SDS011;13966;48.828;9.064;2022-11-20T06:55:48;4.35;;;2.70;;
26113;SDS011;13966;48.828;9.064;2022-11-20T06:58:14;4.30;;;2.40;;
26113;SDS011;13966;48.828;9.064;2022-11-20T07:00:40;4.40;;;2.85;;
26113;SDS011;13966;48.828;9.064;2022-11-20T07:03:07;4.32;;;2.42;;
26113;SDS011;13966;48.828;9.064;2022-11-20T07:05:33;3.55;;;2.35;;
26113;SDS011;13966;48.828;9.064;2022-11-20T07:08:00;2.80;;;2.25;;
26113;SDS011;13966;48.828;9.064;2022-11-20T07:10:26;3.38;;;2.22;;
26113;SDS011;13966;48.828;9.064;2022-11-20T07:12:52;2.72;;;1.80;;
26113;SDS011;13966;48.828;9.064;2022-11-20T07:15:19;5.22;;;2.42;;
26113;SDS011;13966;48.828;9.064;2022-11-20T07:17:45;21.23;;;10.10;;
26113;SDS011;13966;48.828;9.064;2022-11-20T07:20:12;5.05;;;2.70;;
26113;SDS011;13966;48.828;9.064;2022-11-20T07:22:38;3.97;;;2.40;;
26113;SDS011;13966;48.828;9.064;2022-11-20T07:25:04;2.88;;;2.10;;
26113;SDS011;13966;48.828;9.064;2022-11-20T07:27:30;3.22;;;2.22;;
26113;SDS011;13966;48.828;9.064;2022-11-20T07:29:56;5.10;;;2.63;;
26113;SDS011;13966;48.828;9.064;2022-11-20T07:32:22;2.67;;;2.03;;
26113;SDS011;13966;48.828;9.064;2022-11-20T07:34:49;3.35;;;1.95;;
26113;SDS011;13966;48.828;9.064;2022-11-20T07:37:15;4.05;;;2.70;;
26113;SDS011;13966;48.828;9.064;2022-11-20T07:39:41;5.60;;;2.80;;
26113;SDS011;13966;48.828;9.064;2022-11-20T07:42:07;6.75;;;2.92;;
26113;SDS011;13966;48.828;9.064;2022-11-20T07:44:34;4.80;;;2.85;;
26113;SDS011;13966;48.828;9.064;2022-11-20T07:47:00;3.90;;;2.72;;
26113;SDS011;13966;48.828;9.064;2022-11-20T07:49:26;3.97;;;2.30;;
26113;SDS011;13966;48.828;9.064;2022-11-20T07:51:52;4.88;;;2.45;;
26113;SDS011;13966;48.828;9.064;2022-11-20T07:54:19;3.38;;;2.20;;
26113;SDS011;13966;48.828;9.064;2022-11-20T07:56:45;4.22;;;2.47;;
26113;SDS011;13966;48.828;9.064;2022-11-20T07:59:11;4.70;;;3.60;;
26113;SDS011;13966;48.828;9.064;2022-11-20T08:01:38;8.70;;;3.60;;
26113;SDS011;13966;48.828;9.064;2022-11-20T08:04:07;2.88;;;2.33;;
26113;SDS011;13966;48.828;9.064;2022-11-20T08:06:33;6.85;;;2.80;;
26113;SDS011;13966;48.828;9.064;2022-11-20T08:09:05;3.55;;;2.38;;
26113;SDS011;13966;48.828;9.064;2022-11-20T08:11:31;4.57;;;2.95;;
26113;SDS011;13966;48.828;9.064;2022-11-20T08:14:20;5.22;;;3.00;;
26113;SDS011;13966;48.828;9.064;2022-11-20T08:16:49;5.38;;;2.83;;
26113;SDS011;13966;48.828;9.064;2022-11-20T08:19:16;3.90;;;2.83;;
26113;SDS011;13966;48.828;9.064;2022-11-20T08:21:43;2.85;;;2.10;;
26113;SDS011;13966;48.828;9.064;2022-11-20T08:24:10;1.98;;;1.77;;
26113;SDS011;13966;48.828;9.064;2022-11-20T08:26:36;2.35;;;1.98;;
26113;SDS011;13966;48.828;9.064;2022-11-20T08:29:03;2.30;;;1.70;;
26113;SDS011;13966;48.828;9.064;2022-11-20T08:31:29;2.72;;;2.20;;
26113;SDS011;13966;48.828;9.064;2022-11-20T08:33:56;5.63;;;3.35;;
26113;SDS011;13966;48.828;9.064;2022-11-20T08:36:23;3.78;;;2.00;;
26113;SDS011;13966;48.828;9.064;2022-11-20T08:38:50;2.85;;;1.40;;
26113;SDS011;13966;48.828;9.064;2022-11-20T08:41:16;3.65;;;1.60;;
26113;SDS011;13966;48.828;9.064;2022-11-20T08:43:48;2.20;;;1.42;;
26113;SDS011;13966;48.828;9.064;2022-11-20T08:46:15;1.75;;;1.48;;
26113;SDS011;13966;48.828;9.064;2022-11-20T08:48:41;1.35;;;1.10;;
26113;SDS011;13966;48.828;9.064;2022-11-20T08:51:07;1.42;;;1.15;;
26113;SDS011;13966;48.828;9.064;2022-11-20T08:53:33;1.60;;;1.10;;
26113;SDS011;13966;48.828;9.064;2022-11-20T08:55:59;2.13;;;1.48;;
26113;SDS011;13966;48.828;9.064;2022-11-20T08:58:25;1.83;;;1.65;;
26113;SDS011;13966;48.828;9.064;2022-11-20T09:00:51;2.95;;;1.38;;
26113;SDS011;13966;48.828;9.064;2022-11-20T09:03:20;3.00;;;1.45;;
26113;SDS011;13966;48.828;9.064;2022-11-20T09:05:46;2.15;;;1.55;;
26113;SDS011;13966;48.828;9.064;2022-11-20T09:08:12;1.35;;;1.25;;
26113;SDS011;13966;48.828;9.064;2022-11-20T09:10:38;5.78;;;1.88;;
26113;SDS011;13966;48.828;9.064;2022-11-20T09:13:07;2.17;;;1.30;;
26113;SDS011;13966;48.828;9.064;2022-11-20T09:15:33;1.48;;;1.10;;
26113;SDS011;13966;48.828;9.064;2022-11-20T09:18:00;2.47;;;1.20;;
26113;SDS011;13966;48.828;9.064;2022-11-20T09:20:28;2.17;;;1.30;;
26113;SDS011;13966;48.828;9.064;2022-11-20T09:22:54;2.30;;;1.40;;
26113;SDS011;13966;48.828;9.064;2022-11-20T09:25:20;2.65;;;1.75;;
26113;SDS011;13966;48.828;9.064;2022-11-20T09:27:46;2.25;;;1.63;;
26113;SDS011;13966;48.828;9.064;2022-11-20T09:30:13;3.15;;;2.47;;
26113;SDS011;13966;48.828;9.064;2022-11-20T09:32:39;1.85;;;1.55;;
26113;SDS011;13966;48.828;9.064;2022-11-20T09:35:06;2.33;;;1.67;;
26113;SDS011;13966;48.828;9.064;2022-11-20T09:37:32;2.88;;;2.05;;
26113;SDS011;13966;48.828;9.064;2022-11-20T09:39:58;3.00;;;2.20;;
26113;SDS011;13966;48.828;9.064;2022-11-20T09:47:45;3.88;;;2.95;;
26113;SDS011;13966;48.828;9.064;2022-11-20T09:55:12;1.95;;;1.65;;
26113;SDS011;13966;48.828;9.064;2022-11-20T09:57:40;5.25;;;2.50;;
26113;SDS011;13966;48.828;9.064;2022-11-20T10:00:12;2.42;;;1.80;;
26113;SDS011;13966;48.828;9.064;2022-11-20T10:08:01;5.72;;;4.18;;
26113;SDS011;13966;48.828;9.064;2022-11-20T10:10:34;3.58;;;2.15;;
26113;SDS011;13966;48.828;9.064;2022-11-20T10:15:31;3.45;;;2.40;;
26113;SDS011;13966;48.828;9.064;2022-11-20T10:30:34;4.80;;;2.00;;
26113;SDS011;13966;48.828;9.064;2022-11-20T10:33:06;3.15;;;2.40;;
26113;SDS011;13966;48.828;9.064;2022-11-20T10:35:35;4.80;;;2.30;;
26113;SDS011;13966;48.828;9.064;2022-11-20T10:38:04;4.65;;;1.75;;
26113;SDS011;13966;48.828;9.064;2022-11-20T10:43:11;3.20;;;2.28;;
26113;SDS011;13966;48.828;9.064;2022-11-20T10:45:52;3.08;;;2.50;;
26113;SDS011;13966;48.828;9.064;2022-11-20T10:48:26;2.80;;;2.10;;
26113;SDS011;13966;48.828;9.064;2022-11-20T10:55:55;2.70;;;1.95;;
26113;SDS011;13966;48.828;9.064;2022-11-20T11:03:52;7.10;;;4.13;;
26113;SDS011;13966;48.828;9.064;2022-11-20T11:06:23;8.15;;;4.35;;
26113;SDS011;13966;48.828;9.064;2022-11-20T11:08:51;4.10;;;3.08;;
26113;SDS011;13966;48.828;9.064;2022-11-20T11:11:27;3.83;;;2.90;;
26113;SDS011;13966;48.828;9.064;2022-11-20T11:13:53;5.85;;;3.22;;
26113;SDS011;13966;48.828;9.064;2022-11-20T11:16:29;3.03;;;2.72;;
26113;SDS011;13966;48.828;9.064;2022-11-20T11:19:05;5.20;;;2.70;;
26113;SDS011;13966;48.828;9.064;2022-11-20T11:21:31;4.95;;;2.72;;
26113;SDS011;13966;48.828;9.064;2022-11-20T11:23:59;4.65;;;2.20;;
26113;SDS011;13966;48.828;9.064;2022-11-20T11:26:25;2.63;;;1.90;;
26113;SDS011;13966;48.828;9.064;2022-11-20T11:28:58;3.63;;;2.38;;
26113;SDS011;13966;48.828;9.064;2022-11-20T11:31:25;3.22;;;1.48;;
26113;SDS011;13966;48.828;9.064;2022-11-20T11:33:52;4.82;;;1.60;;
26113;SDS011;13966;48.828;9.064;2022-11-20T11:36:28;4.00;;;1.52;;
26113;SDS011;13966;48.828;9.064;2022-11-20T11:38:54;4.72;;;1.50;;
26113;SDS011;13966;48.828;9.064;2022-11-20T11:41:25;5.32;;;1.50;;
26113;SDS011;13966;48.828;9.064;2022-11-20T11:43:55;2.92;;;1.40;;
26113;SDS011;13966;48.828;9.064;2022-11-20T11:46:44;5.88;;;1.73;;
26113;SDS011;13966;48.828;9.064;2022-11-20T11:49:16;4.15;;;1.67;;
26113;SDS011;13966;48.828;9.064;2022-11-20T11:52:00;6.07;;;2.08;;
26113;SDS011;13966;48.828;9.064;2022-11-20T11:56:53;4.20;;;2.10;;
26113;SDS011;13966;48.828;9.064;2022-11-20T11:59:23;5.22;;;2.05;;
26113;SDS011;13966;48.828;9.064;2022-11-20T12:01:53;2.42;;;1.85;;
26113;SDS011;13966;48.828;9.064;2022-11-20T12:04:26;4.43;;;1.70;;
26113;SDS011;13966;48.828;9.064;2022-11-20T12:07:01;5.20;;;1.77;;
26113;SDS011;13966;48.828;9.064;2022-11-20T12:09:34;3.17;;;1.50;;
26113;SDS011;13966;48.828;9.064;2022-11-20T12:12:44;2.60;;;1.50;;
26113;SDS011;13966;48.828;9.064;2022-11-20T12:14:50;2.30;;;1.10;;
26113;SDS011;13966;48.828;9.064;2022-11-20T12:17:18;2.17;;;0.98;;
26113;SDS011;13966;48.828;9.064;2022-11-20T12:19:44;2.97;;;0.93;;
26113;SDS011;13966;48.828;9.064;2022-11-20T12:22:19;2.70;;;1.38;;
26113;SDS011;13966;48.828;9.064;2022-11-20T12:24:55;2.13;;;1.05;;
26113;SDS011;13966;48.828;9.064;2022-11-20T12:27:44;1.98;;;0.90;;
26113;SDS011;13966;48.828;9.064;2022-11-20T12:30:17;1.75;;;0.70;;
26113;SDS011;13966;48.828;9.064;2022-11-20T12:41:31;1.52;;;0.75;;
26113;SDS011;13966;48.828;9.064;2022-11-20T12:43:28;2.33;;;0.80;;
26113;SDS011;13966;48.828;9.064;2022-11-20T12:46:21;3.45;;;1.60;;
26113;SDS011;13966;48.828;9.064;2022-11-20T12:54:03;3.78;;;1.70;;
26113;SDS011;13966;48.828;9.064;2022-11-20T13:01:49;4.38;;;1.60;;
26113;SDS011;13966;48.828;9.064;2022-11-20T13:07:08;3.72;;;1.08;;
26113;SDS011;13966;48.828;9.064;2022-11-20T13:09:36;4.80;;;1.60;;
26113;SDS011;13966;48.828;9.064;2022-11-20T13:12:24;3.63;;;1.10;;
26113;SDS011;13966;48.828;9.064;2022-11-20T13:15:15;2.58;;;1.30;;
26113;SDS011;13966;48.828;9.064;2022-11-20T13:17:50;4.68;;;1.50;;
26113;SDS011;13966;48.828;9.064;2022-11-20T13:20:18;3.47;;;1.00;;
26113;SDS011;13966;48.828;9.064;2022-11-20T13:22:45;4.00;;;1.50;;
26113;SDS011;13966;48.828;9.064;2022-11-20T13:27:49;8.18;;;2.45;;
26113;SDS011;13966;48.828;9.064;2022-11-20T13:30:17;2.03;;;1.05;;
26113;SDS011;13966;48.828;9.064;2022-11-20T13:38:01;1.38;;;1.10;;
26113;SDS011;13966;48.828;9.064;2022-11-20T13:40:27;2.33;;;1.08;;
26113;SDS011;13966;48.828;9.064;2022-11-20T13:45:26;4.28;;;1.30;;
26113;SDS011;13966;48.828;9.064;2022-11-20T13:47:53;4.72;;;1.88;;
26113;SDS011;13966;48.828;9.064;2022-11-20T13:50:19;3.20;;;1.60;;
26113;SDS011;13966;48.828;9.064;2022-11-20T13:55:40;3.33;;;1.20;;
26113;SDS011;13966;48.828;9.064;2022-11-20T14:00:58;2.67;;;1.10;;
26113;SDS011;13966;48.828;9.064;2022-11-20T14:03:28;2.00;;;1.00;;
26113;SDS011;13966;48.828;9.064;2022-11-20T14:05:55;4.35;;;1.40;;
26113;SDS011;13966;48.828;9.064;2022-11-20T14:08:26;1.45;;;1.00;;
26113;SDS011;13966;48.828;9.064;2022-11-20T14:11:13;2.60;;;1.20;;
26113;SDS011;13966;48.828;9.064;2022-11-20T14:13:50;4.03;;;1.88;;
26113;SDS011;13966;48.828;9.064;2022-11-20T14:16:19;3.10;;;1.60;;
26113;SDS011;13966;48.828;9.064;2022-11-20T14:18:45;7.80;;;4.30;;
26113;SDS011;13966;48.828;9.064;2022-11-20T14:21:11;3.70;;;1.90;;
26113;SDS011;13966;48.828;9.064;2022-11-20T14:23:37;1.90;;;1.23;;
26113;SDS011;13966;48.828;9.064;2022-11-20T14:26:03;3.40;;;1.95;;
26113;SDS011;13966;48.828;9.064;2022-11-20T14:28:30;3.47;;;1.73;;
26113;SDS011;13966;48.828;9.064;2022-11-20T14:30:56;2.55;;;1.52;;
26113;SDS011;13966;48.828;9.064;2022-11-20T14:33:23;1.83;;;1.30;;
26113;SDS011;13966;48.828;9.064;2022-11-20T14:35:54;3.88;;;1.40;;
26113;SDS011;13966;48.828;9.064;2022-11-20T14:38:25;2.60;;;1.20;;
26113;SDS011;13966;48.828;9.064;2022-11-20T14:40:51;5.40;;;1.50;;
26113;SDS011;13966;48.828;9.064;2022-11-20T14:45:48;2.90;;;1.52;;
26113;SDS011;13966;48.828;9.064;2022-11-20T14:48:16;2.85;;;1.60;;
26113;SDS011;13966;48.828;9.064;2022-11-20T14:50:42;2.28;;;1.20;;
26113;SDS011;13966;48.828;9.064;2022-11-20T14:53:08;3.67;;;1.30;;
26113;SDS011;13966;48.828;9.064;2022-11-20T14:55:35;2.40;;;1.40;;
26113;SDS011;13966;48.828;9.064;2022-11-20T14:58:23;3.92;;;1.50;;
26113;SDS011;13966;48.828;9.064;2022-11-20T15:00:55;2.15;;;1.52;;
26113;SDS011;13966;48.828;9.064;2022-11-20T15:03:22;3.65;;;1.73;;
26113;SDS011;13966;48.828;9.064;2022-11-20T15:05:49;3.20;;;1.40;;
26113;SDS011;13966;48.828;9.064;2022-11-20T15:08:16;4.35;;;1.30;;
26113;SDS011;13966;48.828;9.064;2022-11-20T15:10:46;3.55;;;1.15;;
26113;SDS011;13966;48.828;9.064;2022-11-20T15:13:13;4.50;;;1.50;;
26113;SDS011;13966;48.828;9.064;2022-11-20T15:15:45;3.10;;;1.25;;
26113;SDS011;13966;48.828;9.064;2022-11-20T15:18:13;3.20;;;1.52;;
26113;SDS011;13966;48.828;9.064;2022-11-20T15:20:39;3.58;;;1.30;;
26113;SDS011;13966;48.828;9.064;2022-11-20T15:23:10;3.15;;;1.23;;
26113;SDS011;13966;48.828;9.064;2022-11-20T15:25:37;4.55;;;1.35;;
26113;SDS011;13966;48.828;9.064;2022-11-20T15:28:04;3.08;;;1.48;;
26113;SDS011;13966;48.828;9.064;2022-11-20T15:30:34;5.47;;;1.30;;
26113;SDS011;13966;48.828;9.064;2022-11-20T15:33:00;1.58;;;1.38;;
26113;SDS011;13966;48.828;9.064;2022-11-20T15:35:26;4.22;;;2.25;;
26113;SDS011;13966;48.828;9.064;2022-11-20T15:37:52;3.70;;;2.08;;
26113;SDS011;13966;48.828;9.064;2022-11-20T15:40:18;3.58;;;2.10;;
26113;SDS011;13966;48.828;9.064;2022-11-20T15:42:44;3.63;;;1.60;;
26113;SDS011;13966;48.828;9.064;2022-11-20T15:45:27;3.75;;;1.65;;
26113;SDS011;13966;48.828;9.064;2022-11-20T15:47:54;3.88;;;1.33;;
26113;SDS011;13966;48.828;9.064;2022-11-20T15:50:20;5.20;;;1.73;;
26113;SDS011;13966;48.828;9.064;2022-11-20T15:52:47;3.92;;;1.70;;
26113;SDS011;13966;48.828;9.064;2022-11-20T15:55:13;4.28;;;1.58;;
26113;SDS011;13966;48.828;9.064;2022-11-20T15:57:39;4.70;;;2.13;;
26113;SDS011;13966;48.828;9.064;2022-11-20T16:00:05;4.53;;;1.90;;
26113;SDS011;13966;48.828;9.064;2022-11-20T16:02:31;2.70;;;1.60;;
26113;SDS011;13966;48.828;9.064;2022-11-20T16:04:58;4.07;;;1.80;;
26113;SDS011;13966;48.828;9.064;2022-11-20T16:07:24;3.38;;;1.67;;
26113;SDS011;13966;48.828;9.064;2022-11-20T16:09:50;4.55;;;1.92;;
26113;SDS011;13966;48.828;9.064;2022-11-20T16:12:16;3.47;;;2.00;;
26113;SDS011;13966;48.828;9.064;2022-11-20T16:15:02;3.90;;;2.33;;
26113;SDS011;13966;48.828;9.064;2022-11-20T16:17:47;3.97;;;2.17;;